Argyle, Florida
Current Conditions -  °F | °C
As of 1:55 PM on Friday 24 Oct 2014 (Local Time) from K54J Reporting Station
Clear Clear  
Wind Chill: 23°   Ceiling: Unl
Heat Index: 23°   Visibility: 10mi
Dew Point:   Wind: 6mph
Humidity: 33%   Direction: 310°NW
Pressure: 30"   Gusts: NA
Location:  30.72°N, 86.04°W
Report Text: K54J 241855Z AUTO 31005KT 10SM CLR 23/06 A3000 RMK AO2 T02290057
Loading
Personal Weather Stations






























Interactive Weather Map
Tropical Storm Tracking
New forecast layout! Learn more

10-Day Weather Forecast

Advertisements
Track Severe Weather on mobile